sensor_id;sensor_type;location;lat;lon;timestamp;pressure;altitude;pressure_sealevel;temperature;humidity
33554;BME280;19885;42.208;24.952;2023-04-15T00:01:26;99105.31;;;12.89;100.00
33554;BME280;19885;42.208;24.952;2023-04-15T00:03:52;99091.84;;;12.54;100.00
33554;BME280;19885;42.208;24.952;2023-04-15T00:06:19;99075.78;;;12.81;100.00
33554;BME280;19885;42.208;24.952;2023-04-15T00:08:45;99056.31;;;13.01;100.00
33554;BME280;19885;42.208;24.952;2023-04-15T00:11:11;99042.88;;;12.68;100.00
33554;BME280;19885;42.208;24.952;2023-04-15T00:13:37;99064.47;;;12.81;100.00
33554;BME280;19885;42.208;24.952;2023-04-15T00:16:04;99080.59;;;13.10;100.00
33554;BME280;19885;42.208;24.952;2023-04-15T00:18:30;99069.28;;;13.10;100.00
33554;BME280;19885;42.208;24.952;2023-04-15T00:20:56;99108.53;;;13.07;100.00
33554;BME280;19885;42.208;24.952;2023-04-15T00:23:22;99124.34;;;12.99;100.00
33554;BME280;19885;42.208;24.952;2023-04-15T00:25:47;99126.72;;;13.16;100.00
33554;BME280;19885;42.208;24.952;2023-04-15T00:28:13;99134.63;;;13.11;99.94
33554;BME280;19885;42.208;24.952;2023-04-15T00:30:38;99136.06;;;13.32;100.00
33554;BME280;19885;42.208;24.952;2023-04-15T00:33:04;99129.88;;;13.37;100.00
33554;BME280;19885;42.208;24.952;2023-04-15T00:35:30;99133.91;;;13.55;100.00
33554;BME280;19885;42.208;24.952;2023-04-15T00:37:58;99117.09;;;13.70;99.26
33554;BME280;19885;42.208;24.952;2023-04-15T00:40:24;99105.72;;;13.71;97.82
33554;BME280;19885;42.208;24.952;2023-04-15T00:42:50;99105.66;;;13.72;97.18
33554;BME280;19885;42.208;24.952;2023-04-15T00:45:16;99103.00;;;13.75;97.20
33554;BME280;19885;42.208;24.952;2023-04-15T00:47:43;99095.28;;;13.69;97.45
33554;BME280;19885;42.208;24.952;2023-04-15T00:50:09;99085.69;;;13.68;98.28
33554;BME280;19885;42.208;24.952;2023-04-15T00:52:35;99113.31;;;13.84;97.67
33554;BME280;19885;42.208;24.952;2023-04-15T00:55:02;99121.00;;;13.93;97.06
33554;BME280;19885;42.208;24.952;2023-04-15T00:57:29;99112.44;;;13.85;96.89
33554;BME280;19885;42.208;24.952;2023-04-15T00:59:55;99107.31;;;13.78;96.84
33554;BME280;19885;42.208;24.952;2023-04-15T01:02:22;99106.44;;;13.79;98.71
33554;BME280;19885;42.208;24.952;2023-04-15T01:04:48;99108.16;;;13.80;98.42
33554;BME280;19885;42.208;24.952;2023-04-15T01:07:14;99078.81;;;13.61;97.85
33554;BME280;19885;42.208;24.952;2023-04-15T01:09:42;99103.91;;;13.74;98.41
33554;BME280;19885;42.208;24.952;2023-04-15T01:12:13;99098.78;;;13.68;98.04
33554;BME280;19885;42.208;24.952;2023-04-15T01:14:40;99098.75;;;13.70;98.71
33554;BME280;19885;42.208;24.952;2023-04-15T01:17:06;99092.84;;;13.58;97.77
33554;BME280;19885;42.208;24.952;2023-04-15T01:19:32;99071.22;;;13.49;98.30
33554;BME280;19885;42.208;24.952;2023-04-15T01:21:57;99112.78;;;13.66;99.11
33554;BME280;19885;42.208;24.952;2023-04-15T01:24:25;99110.19;;;13.64;98.75
33554;BME280;19885;42.208;24.952;2023-04-15T01:26:52;99117.25;;;13.61;99.09
33554;BME280;19885;42.208;24.952;2023-04-15T01:29:17;99065.50;;;13.26;98.82
33554;BME280;19885;42.208;24.952;2023-04-15T01:31:54;99129.47;;;13.58;99.43
33554;BME280;19885;42.208;24.952;2023-04-15T01:34:20;99134.72;;;13.60;99.78
33554;BME280;19885;42.208;24.952;2023-04-15T01:36:47;99129.72;;;13.46;99.81
33554;BME280;19885;42.208;24.952;2023-04-15T01:39:13;99091.56;;;13.32;99.66
33554;BME280;19885;42.208;24.952;2023-04-15T01:41:38;99132.19;;;13.54;100.00
33554;BME280;19885;42.208;24.952;2023-04-15T01:44:05;99123.56;;;13.47;99.82
33554;BME280;19885;42.208;24.952;2023-04-15T01:46:31;99121.09;;;13.40;100.00
33554;BME280;19885;42.208;24.952;2023-04-15T01:48:57;99132.25;;;13.51;100.00
33554;BME280;19885;42.208;24.952;2023-04-15T01:51:22;99089.28;;;13.11;100.00
33554;BME280;19885;42.208;24.952;2023-04-15T01:53:48;99122.03;;;13.36;100.00
33554;BME280;19885;42.208;24.952;2023-04-15T01:56:13;99118.38;;;13.46;100.00
33554;BME280;19885;42.208;24.952;2023-04-15T01:58:41;99121.94;;;13.42;100.00
33554;BME280;19885;42.208;24.952;2023-04-15T02:01:09;99131.38;;;13.50;100.00
33554;BME280;19885;42.208;24.952;2023-04-15T02:03:37;99146.34;;;13.44;99.69
33554;BME280;19885;42.208;24.952;2023-04-15T02:06:03;99144.53;;;13.46;99.87
33554;BME280;19885;42.208;24.952;2023-04-15T02:08:30;99156.13;;;13.31;100.00
33554;BME280;19885;42.208;24.952;2023-04-15T02:10:56;99157.03;;;13.29;100.00
33554;BME280;19885;42.208;24.952;2023-04-15T02:13:21;99146.50;;;13.32;100.00
33554;BME280;19885;42.208;24.952;2023-04-15T02:15:48;99160.44;;;13.34;100.00
33554;BME280;19885;42.208;24.952;2023-04-15T02:18:15;99171.66;;;13.40;100.00
33554;BME280;19885;42.208;24.952;2023-04-15T02:20:41;99173.53;;;13.35;100.00
33554;BME280;19885;42.208;24.952;2023-04-15T02:23:08;99177.88;;;13.35;100.00
33554;BME280;19885;42.208;24.952;2023-04-15T02:25:34;99171.81;;;13.33;100.00
33554;BME280;19885;42.208;24.952;2023-04-15T02:27:59;99150.91;;;13.30;100.00
33554;BME280;19885;42.208;24.952;2023-04-15T02:30:25;99156.88;;;13.38;100.00
33554;BME280;19885;42.208;24.952;2023-04-15T02:32:51;99155.16;;;13.37;100.00
33554;BME280;19885;42.208;24.952;2023-04-15T02:35:16;99152.34;;;13.49;100.00
33554;BME280;19885;42.208;24.952;2023-04-15T02:37:44;99161.09;;;13.48;100.00
33554;BME280;19885;42.208;24.952;2023-04-15T02:40:10;99154.22;;;13.41;100.00
33554;BME280;19885;42.208;24.952;2023-04-15T02:42:37;99130.94;;;13.26;100.00
33554;BME280;19885;42.208;24.952;2023-04-15T02:45:04;99161.13;;;13.45;100.00
33554;BME280;19885;42.208;24.952;2023-04-15T02:47:30;99150.88;;;13.33;100.00
33554;BME280;19885;42.208;24.952;2023-04-15T02:49:56;99158.72;;;13.33;100.00
33554;BME280;19885;42.208;24.952;2023-04-15T02:52:24;99162.09;;;13.39;100.00
33554;BME280;19885;42.208;24.952;2023-04-15T02:54:50;99174.19;;;13.48;100.00
33554;BME280;19885;42.208;24.952;2023-04-15T02:57:16;99159.50;;;13.39;100.00
33554;BME280;19885;42.208;24.952;2023-04-15T02:59:41;99179.41;;;13.48;100.00
33554;BME280;19885;42.208;24.952;2023-04-15T03:02:07;99162.22;;;13.32;100.00
33554;BME280;19885;42.208;24.952;2023-04-15T03:04:32;99163.88;;;13.36;100.00
33554;BME280;19885;42.208;24.952;2023-04-15T03:06:58;99168.25;;;13.37;100.00
33554;BME280;19885;42.208;24.952;2023-04-15T03:09:25;99158.59;;;13.42;100.00
33554;BME280;19885;42.208;24.952;2023-04-15T03:11:51;99151.63;;;13.38;100.00
33554;BME280;19885;42.208;24.952;2023-04-15T03:14:18;99158.53;;;13.43;100.00
33554;BME280;19885;42.208;24.952;2023-04-15T03:16:44;99160.28;;;13.43;99.97
33554;BME280;19885;42.208;24.952;2023-04-15T03:19:10;99156.25;;;13.22;100.00
33554;BME280;19885;42.208;24.952;2023-04-15T03:21:35;99172.94;;;13.15;100.00
33554;BME280;19885;42.208;24.952;2023-04-15T03:24:00;99147.34;;;12.74;100.00
33554;BME280;19885;42.208;24.952;2023-04-15T03:26:30;99171.66;;;12.82;100.00
33554;BME280;19885;42.208;24.952;2023-04-15T03:28:56;99178.31;;;13.02;100.00
33554;BME280;19885;42.208;24.952;2023-04-15T03:31:22;99180.88;;;13.09;100.00
33554;BME280;19885;42.208;24.952;2023-04-15T03:33:47;99189.00;;;12.86;100.00
33554;BME280;19885;42.208;24.952;2023-04-15T03:36:13;99198.06;;;12.61;100.00
33554;BME280;19885;42.208;24.952;2023-04-15T03:38:39;99187.78;;;12.46;100.00
33554;BME280;19885;42.208;24.952;2023-04-15T03:41:04;99207.31;;;12.13;100.00
33554;BME280;19885;42.208;24.952;2023-04-15T03:43:30;99206.56;;;12.02;100.00
33554;BME280;19885;42.208;24.952;2023-04-15T03:45:55;99209.28;;;11.92;100.00
33554;BME280;19885;42.208;24.952;2023-04-15T03:48:21;99209.28;;;11.92;100.00
33554;BME280;19885;42.208;24.952;2023-04-15T03:50:46;99209.31;;;11.87;100.00
33554;BME280;19885;42.208;24.952;2023-04-15T03:53:12;99224.00;;;12.00;100.00
33554;BME280;19885;42.208;24.952;2023-04-15T03:55:38;99193.75;;;11.78;100.00
33554;BME280;19885;42.208;24.952;2023-04-15T03:58:04;99255.16;;;12.18;100.00
33554;BME280;19885;42.208;24.952;2023-04-15T04:00:29;99260.34;;;12.23;100.00
33554;BME280;19885;42.208;24.952;2023-04-15T04:02:55;99261.34;;;12.10;100.00
33554;BME280;19885;42.208;24.952;2023-04-15T04:05:22;99255.34;;;11.99;100.00
33554;BME280;19885;42.208;24.952;2023-04-15T04:07:48;99244.13;;;11.86;100.00
33554;BME280;19885;42.208;24.952;2023-04-15T04:10:14;99245.78;;;11.98;100.00
33554;BME280;19885;42.208;24.952;2023-04-15T04:12:41;99255.31;;;12.03;100.00
33554;BME280;19885;42.208;24.952;2023-04-15T04:15:10;99258.88;;;11.93;100.00
33554;BME280;19885;42.208;24.952;2023-04-15T04:17:38;99216.44;;;11.66;100.00
33554;BME280;19885;42.208;24.952;2023-04-15T04:20:07;99214.72;;;11.65;100.00
33554;BME280;19885;42.208;24.952;2023-04-15T04:22:39;99263.50;;;11.55;100.00
33554;BME280;19885;42.208;24.952;2023-04-15T04:25:06;99208.25;;;10.94;100.00
33554;BME280;19885;42.208;24.952;2023-04-15T04:27:33;99263.72;;;11.19;100.00
33554;BME280;19885;42.208;24.952;2023-04-15T04:29:59;99265.50;;;11.09;100.00
33554;BME280;19885;42.208;24.952;2023-04-15T04:32:28;99252.38;;;11.26;100.00
33554;BME280;19885;42.208;24.952;2023-04-15T04:34:54;99253.22;;;11.32;100.00
33554;BME280;19885;42.208;24.952;2023-04-15T04:37:21;99243.53;;;11.51;100.00
33554;BME280;19885;42.208;24.952;2023-04-15T04:39:49;99225.38;;;11.34;100.00
33554;BME280;19885;42.208;24.952;2023-04-15T04:42:14;99241.78;;;11.52;100.00
33554;BME280;19885;42.208;24.952;2023-04-15T04:44:40;99242.66;;;11.51;100.00
33554;BME280;19885;42.208;24.952;2023-04-15T04:47:07;99251.25;;;11.68;100.00
33554;BME280;19885;42.208;24.952;2023-04-15T04:49:32;99252.91;;;11.75;100.00
33554;BME280;19885;42.208;24.952;2023-04-15T04:51:58;99252.91;;;11.78;100.00
33554;BME280;19885;42.208;24.952;2023-04-15T04:54:23;99264.19;;;11.81;100.00
33554;BME280;19885;42.208;24.952;2023-04-15T04:56:49;99265.94;;;11.82;100.00
33554;BME280;19885;42.208;24.952;2023-04-15T04:59:15;99276.50;;;11.67;100.00
33554;BME280;19885;42.208;24.952;2023-04-15T05:01:41;99279.97;;;11.62;100.00
33554;BME280;19885;42.208;24.952;2023-04-15T05:04:06;99270.50;;;11.45;100.00
33554;BME280;19885;42.208;24.952;2023-04-15T05:06:32;99293.97;;;11.52;100.00
33554;BME280;19885;42.208;24.952;2023-04-15T05:08:58;99297.56;;;11.31;100.00
33554;BME280;19885;42.208;24.952;2023-04-15T05:11:25;99301.97;;;11.21;100.00
33554;BME280;19885;42.208;24.952;2023-04-15T05:13:51;99299.22;;;11.44;100.00
33554;BME280;19885;42.208;24.952;2023-04-15T05:16:16;99301.03;;;11.31;100.00
33554;BME280;19885;42.208;24.952;2023-04-15T05:18:42;99297.38;;;11.60;99.93
33554;BME280;19885;42.208;24.952;2023-04-15T05:21:08;99289.53;;;11.69;98.90
33554;BME280;19885;42.208;24.952;2023-04-15T05:23:33;99280.81;;;11.67;99.86
33554;BME280;19885;42.208;24.952;2023-04-15T05:25:59;99263.38;;;11.76;96.66
33554;BME280;19885;42.208;24.952;2023-04-15T05:28:24;99284.00;;;12.08;97.52
33554;BME280;19885;42.208;24.952;2023-04-15T05:30:50;99298.13;;;11.80;98.70
33554;BME280;19885;42.208;24.952;2023-04-15T05:33:16;99307.75;;;11.76;100.00
33554;BME280;19885;42.208;24.952;2023-04-15T05:35:41;99300.03;;;11.54;100.00
33554;BME280;19885;42.208;24.952;2023-04-15T05:38:07;99300.88;;;11.57;99.96
33554;BME280;19885;42.208;24.952;2023-04-15T05:40:32;99317.09;;;12.06;99.58
33554;BME280;19885;42.208;24.952;2023-04-15T05:42:58;99306.88;;;11.79;98.80
33554;BME280;19885;42.208;24.952;2023-04-15T05:45:23;99279.94;;;11.66;97.98
33554;BME280;19885;42.208;24.952;2023-04-15T05:47:49;99327.59;;;11.95;100.00
33554;BME280;19885;42.208;24.952;2023-04-15T05:50:15;99319.81;;;11.92;99.24
33554;BME280;19885;42.208;24.952;2023-04-15T05:52:41;99339.56;;;12.22;98.99
33554;BME280;19885;42.208;24.952;2023-04-15T05:55:06;99346.31;;;12.47;98.83
33554;BME280;19885;42.208;24.952;2023-04-15T05:57:32;99346.16;;;12.61;98.04
33554;BME280;19885;42.208;24.952;2023-04-15T05:59:57;99354.56;;;12.92;98.67
33554;BME280;19885;42.208;24.952;2023-04-15T06:02:23;99299.00;;;12.73;97.17
33554;BME280;19885;42.208;24.952;2023-04-15T06:04:48;99310.03;;;12.99;96.61
33554;BME280;19885;42.208;24.952;2023-04-15T06:07:14;99361.00;;;13.39;96.84
33554;BME280;19885;42.208;24.952;2023-04-15T06:09:39;99346.50;;;13.78;94.45
33554;BME280;19885;42.208;24.952;2023-04-15T06:12:05;99344.50;;;13.95;93.57
33554;BME280;19885;42.208;24.952;2023-04-15T06:14:36;99365.75;;;14.34;95.19
33554;BME280;19885;42.208;24.952;2023-04-15T06:17:02;99358.28;;;14.61;92.93
33554;BME280;19885;42.208;24.952;2023-04-15T06:19:27;99346.81;;;15.11;91.35
33554;BME280;19885;42.208;24.952;2023-04-15T06:21:53;99352.25;;;15.46;88.99
33554;BME280;19885;42.208;24.952;2023-04-15T06:24:19;99299.91;;;15.36;88.79
33554;BME280;19885;42.208;24.952;2023-04-15T06:26:44;99354.75;;;15.52;89.85
33554;BME280;19885;42.208;24.952;2023-04-15T06:29:10;99371.75;;;16.13;88.58
33554;BME280;19885;42.208;24.952;2023-04-15T06:31:35;99379.94;;;15.62;91.27
33554;BME280;19885;42.208;24.952;2023-04-15T06:34:01;99383.44;;;15.61;90.98
33554;BME280;19885;42.208;24.952;2023-04-15T06:36:27;99363.25;;;15.63;89.25
33554;BME280;19885;42.208;24.952;2023-04-15T06:38:52;99367.47;;;15.70;89.16
33554;BME280;19885;42.208;24.952;2023-04-15T06:41:18;99372.69;;;15.74;89.12
33554;BME280;19885;42.208;24.952;2023-04-15T06:43:43;99370.91;;;15.31;89.75
33554;BME280;19885;42.208;24.952;2023-04-15T06:46:09;99317.56;;;15.29;90.06
33554;BME280;19885;42.208;24.952;2023-04-15T06:48:35;99378.03;;;15.67;93.40
33554;BME280;19885;42.208;24.952;2023-04-15T06:51:00;99375.78;;;15.91;91.40
33554;BME280;19885;42.208;24.952;2023-04-15T06:53:26;99381.81;;;15.96;90.48
33554;BME280;19885;42.208;24.952;2023-04-15T06:55:53;99379.94;;;15.99;90.27
33554;BME280;19885;42.208;24.952;2023-04-15T06:58:19;99375.97;;;16.20;89.79
33554;BME280;19885;42.208;24.952;2023-04-15T07:00:44;99367.31;;;15.78;89.96
33554;BME280;19885;42.208;24.952;2023-04-15T07:03:11;99383.19;;;15.74;92.44
33554;BME280;19885;42.208;24.952;2023-04-15T07:05:37;99390.47;;;16.36;88.18
33554;BME280;19885;42.208;24.952;2023-04-15T07:08:03;99379.53;;;16.54;90.51
33554;BME280;19885;42.208;24.952;2023-04-15T07:10:29;99377.59;;;16.61;86.67
33554;BME280;19885;42.208;24.952;2023-04-15T07:12:55;99383.47;;;16.72;85.76
33554;BME280;19885;42.208;24.952;2023-04-15T07:15:21;99366.34;;;16.56;86.06
33554;BME280;19885;42.208;24.952;2023-04-15T07:17:47;99365.56;;;16.52;86.59
33554;BME280;19885;42.208;24.952;2023-04-15T07:20:13;99383.59;;;16.67;86.25
33554;BME280;19885;42.208;24.952;2023-04-15T07:22:39;99378.44;;;16.63;85.67
33554;BME280;19885;42.208;24.952;2023-04-15T07:25:05;99385.91;;;16.42;87.26
33554;BME280;19885;42.208;24.952;2023-04-15T07:27:31;99317.75;;;16.00;88.10
33554;BME280;19885;42.208;24.952;2023-04-15T07:29:57;99393.13;;;16.71;85.52
33554;BME280;19885;42.208;24.952;2023-04-15T07:32:22;99389.28;;;16.84;84.29
33554;BME280;19885;42.208;24.952;2023-04-15T07:34:48;99387.53;;;17.16;84.84
33554;BME280;19885;42.208;24.952;2023-04-15T07:37:14;99403.25;;;17.51;82.86
33554;BME280;19885;42.208;24.952;2023-04-15T07:39:39;99401.13;;;17.33;81.55
33554;BME280;19885;42.208;24.952;2023-04-15T07:42:05;99404.94;;;17.21;81.37
33554;BME280;19885;42.208;24.952;2023-04-15T07:44:33;99401.88;;;17.36;81.16
33554;BME280;19885;42.208;24.952;2023-04-15T07:46:59;99391.03;;;17.47;82.88
33554;BME280;19885;42.208;24.952;2023-04-15T07:49:24;99399.13;;;17.71;81.69
33554;BME280;19885;42.208;24.952;2023-04-15T07:51:50;99394.28;;;17.87;80.29
33554;BME280;19885;42.208;24.952;2023-04-15T07:54:15;99386.59;;;18.07;78.20
33554;BME280;19885;42.208;24.952;2023-04-15T07:56:41;99398.91;;;18.34;74.62
33554;BME280;19885;42.208;24.952;2023-04-15T07:59:07;99394.59;;;18.32;76.62
33554;BME280;19885;42.208;24.952;2023-04-15T08:01:33;99399.50;;;18.16;78.12
33554;BME280;19885;42.208;24.952;2023-04-15T08:03:59;99402.97;;;18.44;78.49
33554;BME280;19885;42.208;24.952;2023-04-15T08:06:27;99409.66;;;18.82;75.83
33554;BME280;19885;42.208;24.952;2023-04-15T08:08:53;99406.22;;;19.05;74.83
33554;BME280;19885;42.208;24.952;2023-04-15T08:11:20;99409.41;;;18.90;72.90
33554;BME280;19885;42.208;24.952;2023-04-15T08:13:51;99414.94;;;18.56;76.06
33554;BME280;19885;42.208;24.952;2023-04-15T08:16:19;99363.97;;;18.26;79.47
33554;BME280;19885;42.208;24.952;2023-04-15T08:18:49;99363.25;;;18.75;77.57
33554;BME280;19885;42.208;24.952;2023-04-15T08:21:16;99416.44;;;19.40;76.60
33554;BME280;19885;42.208;24.952;2023-04-15T08:23:42;99414.94;;;19.32;70.23
33554;BME280;19885;42.208;24.952;2023-04-15T08:26:08;99410.88;;;18.98;74.07
33554;BME280;19885;42.208;24.952;2023-04-15T08:28:34;99398.72;;;19.17;76.19
33554;BME280;19885;42.208;24.952;2023-04-15T08:31:00;99408.88;;;19.30;74.54
33554;BME280;19885;42.208;24.952;2023-04-15T08:33:25;99411.44;;;19.56;71.50
33554;BME280;19885;42.208;24.952;2023-04-15T08:35:51;99410.72;;;19.75;69.41
33554;BME280;19885;42.208;24.952;2023-04-15T08:38:19;99406.03;;;19.59;69.89
33554;BME280;19885;42.208;24.952;2023-04-15T08:40:47;99395.41;;;19.83;71.12
33554;BME280;19885;42.208;24.952;2023-04-15T08:43:33;99395.81;;;19.96;69.39
33554;BME280;19885;42.208;24.952;2023-04-15T08:45:59;99378.59;;;20.08;68.64
33554;BME280;19885;42.208;24.952;2023-04-15T08:48:32;99396.09;;;19.88;69.20
33554;BME280;19885;42.208;24.952;2023-04-15T08:50:58;99383.91;;;20.29;67.21
33554;BME280;19885;42.208;24.952;2023-04-15T08:53:25;99396.78;;;20.15;65.27
33554;BME280;19885;42.208;24.952;2023-04-15T08:55:51;99359.56;;;20.21;71.54
33554;BME280;19885;42.208;24.952;2023-04-15T08:58:19;99396.06;;;20.35;66.32
33554;BME280;19885;42.208;24.952;2023-04-15T09:00:44;99383.34;;;20.65;63.27
33554;BME280;19885;42.208;24.952;2023-04-15T09:03:13;99392.03;;;20.46;66.71
33554;BME280;19885;42.208;24.952;2023-04-15T09:05:41;99402.69;;;20.00;65.19
33554;BME280;19885;42.208;24.952;2023-04-15T09:08:07;99343.03;;;20.15;64.47
33554;BME280;19885;42.208;24.952;2023-04-15T09:10:33;99398.66;;;20.78;59.74
33554;BME280;19885;42.208;24.952;2023-04-15T09:13:00;99393.03;;;21.06;61.42
33554;BME280;19885;42.208;24.952;2023-04-15T09:15:26;99387.28;;;21.37;64.93
33554;BME280;19885;42.208;24.952;2023-04-15T09:17:54;99380.09;;;21.39;58.28
33554;BME280;19885;42.208;24.952;2023-04-15T09:20:20;99380.78;;;21.62;59.66
33554;BME280;19885;42.208;24.952;2023-04-15T09:22:47;99382.53;;;20.63;57.93
33554;BME280;19885;42.208;24.952;2023-04-15T09:27:47;99373.16;;;19.89;66.19
33554;BME280;19885;42.208;24.952;2023-04-15T09:30:13;99378.28;;;19.93;67.19
33554;BME280;19885;42.208;24.952;2023-04-15T09:32:54;99368.59;;;19.92;64.75
33554;BME280;19885;42.208;24.952;2023-04-15T09:35:23;99374.03;;;20.54;66.92
33554;BME280;19885;42.208;24.952;2023-04-15T09:37:49;99308.50;;;19.96;66.82
33554;BME280;19885;42.208;24.952;2023-04-15T09:40:39;99370.81;;;20.68;68.95
33554;BME280;19885;42.208;24.952;2023-04-15T09:43:07;99349.38;;;20.94;66.60
33554;BME280;19885;42.208;24.952;2023-04-15T09:45:34;99366.72;;;21.42;64.57
33554;BME280;19885;42.208;24.952;2023-04-15T09:48:22;99363.81;;;22.03;63.94
33554;BME280;19885;42.208;24.952;2023-04-15T09:50:50;99364.75;;;22.38;58.62
33554;BME280;19885;42.208;24.952;2023-04-15T09:53:19;99370.41;;;21.95;57.99
33554;BME280;19885;42.208;24.952;2023-04-15T09:58:34;99352.38;;;21.46;63.62
33554;BME280;19885;42.208;24.952;2023-04-15T10:01:01;99353.94;;;21.88;61.28
33554;BME280;19885;42.208;24.952;2023-04-15T10:03:29;99353.00;;;21.32;57.90
33554;BME280;19885;42.208;24.952;2023-04-15T10:05:57;99341.13;;;21.59;60.50
33554;BME280;19885;42.208;24.952;2023-04-15T10:08:26;99331.25;;;21.44;57.89
33554;BME280;19885;42.208;24.952;2023-04-15T10:10:54;99335.69;;;21.44;59.69
33554;BME280;19885;42.208;24.952;2023-04-15T10:13:25;99291.44;;;20.87;56.89
33554;BME280;19885;42.208;24.952;2023-04-15T10:16:19;99349.19;;;21.95;57.40
33554;BME280;19885;42.208;24.952;2023-04-15T10:18:47;99335.13;;;22.12;59.93
33554;BME280;19885;42.208;24.952;2023-04-15T10:21:15;99318.50;;;21.89;59.50
33554;BME280;19885;42.208;24.952;2023-04-15T10:23:46;99321.91;;;22.46;59.42
33554;BME280;19885;42.208;24.952;2023-04-15T10:26:12;99327.88;;;22.68;54.64
33554;BME280;19885;42.208;24.952;2023-04-15T10:28:39;99326.47;;;22.25;57.25
33554;BME280;19885;42.208;24.952;2023-04-15T10:31:11;99328.44;;;22.56;54.71
33554;BME280;19885;42.208;24.952;2023-04-15T10:33:41;99307.91;;;22.77;53.17
33554;BME280;19885;42.208;24.952;2023-04-15T10:36:07;99313.88;;;22.82;52.47
33554;BME280;19885;42.208;24.952;2023-04-15T10:38:35;99317.53;;;23.29;51.34
33554;BME280;19885;42.208;24.952;2023-04-15T10:41:21;99308.31;;;23.36;54.22
33554;BME280;19885;42.208;24.952;2023-04-15T10:43:54;99311.56;;;22.40;52.07
33554;BME280;19885;42.208;24.952;2023-04-15T10:46:43;99303.94;;;22.15;53.96
33554;BME280;19885;42.208;24.952;2023-04-15T10:49:17;99314.13;;;22.24;52.12
33554;BME280;19885;42.208;24.952;2023-04-15T10:52:07;99310.69;;;22.22;50.13
33554;BME280;19885;42.208;24.952;2023-04-15T10:54:32;99286.41;;;22.98;51.86
33554;BME280;19885;42.208;24.952;2023-04-15T10:59:35;99259.16;;;22.78;47.04
33554;BME280;19885;42.208;24.952;2023-04-15T11:02:05;99285.59;;;23.46;46.81
33554;BME280;19885;42.208;24.952;2023-04-15T11:04:57;99289.63;;;23.84;45.64
33554;BME280;19885;42.208;24.952;2023-04-15T11:12:40;99298.00;;;22.46;45.04
33554;BME280;19885;42.208;24.952;2023-04-15T11:15:28;99245.22;;;21.87;46.97
33554;BME280;19885;42.208;24.952;2023-04-15T11:18:13;99286.34;;;21.77;44.50
33554;BME280;19885;42.208;24.952;2023-04-15T11:20:44;99284.34;;;21.82;47.12
33554;BME280;19885;42.208;24.952;2023-04-15T11:23:10;99273.06;;;22.31;49.83
33554;BME280;19885;42.208;24.952;2023-04-15T11:25:36;99287.13;;;22.50;49.17
33554;BME280;19885;42.208;24.952;2023-04-15T11:28:02;99288.31;;;22.79;41.84
33554;BME280;19885;42.208;24.952;2023-04-15T11:30:32;99274.03;;;22.97;47.39
33554;BME280;19885;42.208;24.952;2023-04-15T11:33:02;99251.88;;;23.14;46.66
33554;BME280;19885;42.208;24.952;2023-04-15T11:35:29;99278.75;;;23.25;41.79
33554;BME280;19885;42.208;24.952;2023-04-15T11:37:55;99267.59;;;23.18;44.01
33554;BME280;19885;42.208;24.952;2023-04-15T11:40:25;99258.47;;;23.55;47.88
33554;BME280;19885;42.208;24.952;2023-04-15T11:43:19;99264.47;;;23.74;41.75
33554;BME280;19885;42.208;24.952;2023-04-15T11:45:56;99262.22;;;23.51;39.73
33554;BME280;19885;42.208;24.952;2023-04-15T11:48:30;99261.31;;;23.68;40.51
33554;BME280;19885;42.208;24.952;2023-04-15T11:51:06;99262.44;;;23.31;41.65
33554;BME280;19885;42.208;24.952;2023-04-15T11:53:44;99262.78;;;23.25;44.83
33554;BME280;19885;42.208;24.952;2023-04-15T11:56:21;99258.00;;;23.31;47.49
33554;BME280;19885;42.208;24.952;2023-04-15T11:58:48;99243.78;;;23.00;44.19
33554;BME280;19885;42.208;24.952;2023-04-15T12:01:15;99243.78;;;23.00;45.07
33554;BME280;19885;42.208;24.952;2023-04-15T12:03:44;99196.69;;;22.86;43.67
33554;BME280;19885;42.208;24.952;2023-04-15T12:06:14;99245.59;;;23.15;42.44
33554;BME280;19885;42.208;24.952;2023-04-15T12:09:14;99241.16;;;23.15;44.09
33554;BME280;19885;42.208;24.952;2023-04-15T12:11:56;99239.22;;;22.86;43.90
33554;BME280;19885;42.208;24.952;2023-04-15T12:14:26;99238.00;;;22.42;44.52
33554;BME280;19885;42.208;24.952;2023-04-15T12:17:03;99233.31;;;22.30;47.56
33554;BME280;19885;42.208;24.952;2023-04-15T12:19:33;99235.13;;;22.46;47.20
33554;BME280;19885;42.208;24.952;2023-04-15T12:22:08;99227.13;;;22.63;44.24
33554;BME280;19885;42.208;24.952;2023-04-15T12:24:35;99231.88;;;23.07;41.92
33554;BME280;19885;42.208;24.952;2023-04-15T12:27:05;99215.97;;;23.38;41.45
33554;BME280;19885;42.208;24.952;2023-04-15T12:29:32;99218.72;;;23.68;43.25
33554;BME280;19885;42.208;24.952;2023-04-15T12:34:34;99163.53;;;23.09;45.21
33554;BME280;19885;42.208;24.952;2023-04-15T12:37:03;99222.16;;;23.70;46.19
33554;BME280;19885;42.208;24.952;2023-04-15T12:39:30;99215.34;;;23.33;44.71
33554;BME280;19885;42.208;24.952;2023-04-15T12:41:57;99220.63;;;23.34;46.62
33554;BME280;19885;42.208;24.952;2023-04-15T12:44:24;99172.88;;;23.16;46.95
33554;BME280;19885;42.208;24.952;2023-04-15T12:46:53;99217.72;;;23.39;46.69
33554;BME280;19885;42.208;24.952;2023-04-15T12:49:22;99206.69;;;23.29;47.96
33554;BME280;19885;42.208;24.952;2023-04-15T12:51:49;99160.56;;;23.30;48.21
33554;BME280;19885;42.208;24.952;2023-04-15T12:54:18;99213.69;;;23.48;46.90
33554;BME280;19885;42.208;24.952;2023-04-15T12:56:47;99215.41;;;23.49;46.14
33554;BME280;19885;42.208;24.952;2023-04-15T12:59:16;99205.34;;;23.38;47.28
33554;BME280;19885;42.208;24.952;2023-04-15T13:01:47;99212.66;;;23.34;46.23
33554;BME280;19885;42.208;24.952;2023-04-15T13:04:15;99170.13;;;23.02;48.10
33554;BME280;19885;42.208;24.952;2023-04-15T13:06:41;99208.09;;;23.52;48.59